Time;durP1;ratioP1;P1;durP2;ratioP2;P2;SDS_P1;SDS_P2;PMS_P1;PMS_P2;Temp;Humidity;BMP_temperature;BMP_pressure;BME280_temperature;BME280_humidity;BME280_pressure;Samples;Min_cycle;Max_cycle;Signal;HPM_P1;HPM_P2
2022/05/27 00:01:48;;;;;;;19.70;12.23;;;;;;;-148.88;100.00;75671.59;5015257;28;20029;-76
2022/05/27 00:04:14;;;;;;;18.25;12.23;;;;;;;-148.88;100.00;75671.59;4997651;28;20065;-76
2022/05/27 00:06:39;;;;;;;19.30;13.23;;;;;;;-148.88;100.00;75691.91;5015419;28;20391;-76
2022/05/27 00:09:04;;;;;;;23.23;14.60;;;;;;;-148.88;100.00;75687.84;5015079;28;20029;-76
2022/05/27 00:11:30;;;;;;;19.50;14.52;;;;;;;-148.88;100.00;75700.03;5015341;28;20395;-76
2022/05/27 00:13:56;;;;;;;20.60;13.52;;;;;;;-148.88;100.00;75687.84;4997386;28;20030;-76
2022/05/27 00:16:21;;;;;;;19.38;14.32;;;;;;;-148.88;100.00;75691.91;4997422;28;20025;-76
2022/05/27 00:18:47;;;;;;;19.73;14.10;;;;;;;-148.88;100.00;75691.91;5015132;28;20022;-76
2022/05/27 00:21:13;;;;;;;21.48;14.32;;;;;;;-148.88;100.00;75687.84;5014931;28;20124;-76
2022/05/27 00:23:39;;;;;;;23.52;14.13;;;;;;;-148.88;100.00;75685.81;5015106;28;20057;-76
2022/05/27 00:26:06;;;;;;;22.50;13.57;;;;;;;-148.88;100.00;75683.78;5015004;28;20025;-76
2022/05/27 00:28:32;;;;;;;21.60;15.07;;;;;;;-148.88;100.00;75685.81;4997028;28;20030;-76
2022/05/27 00:30:57;;;;;;;21.25;14.77;;;;;;;-148.88;100.00;75675.66;4997022;28;20018;-76
2022/05/27 00:33:23;;;;;;;24.02;14.98;;;;;;;-148.88;100.00;75700.03;4997115;28;20072;-76
2022/05/27 00:35:49;;;;;;;22.85;15.32;;;;;;;-148.88;100.00;75700.03;4996950;28;20441;-76
2022/05/27 00:38:15;;;;;;;19.90;13.85;;;;;;;-148.88;100.00;75693.94;4996882;28;20125;-76
2022/05/27 00:40:43;;;;;;;20.65;13.35;;;;;;;-148.88;100.00;75704.09;5014714;28;20036;-76
2022/05/27 00:43:09;;;;;;;20.88;13.55;;;;;;;-148.88;100.00;75700.03;5014465;28;20029;-76
2022/05/27 00:45:37;;;;;;;23.58;14.20;;;;;;;-148.88;100.00;75695.97;5014408;28;20084;-76
2022/05/27 00:48:06;;;;;;;18.92;12.90;;;;;;;-148.88;100.00;75702.06;4996739;28;20072;-76
2022/05/27 00:50:40;;;;;;;21.73;13.75;;;;;;;-148.88;100.00;75702.06;5036044;22;20041;-86
2022/05/27 00:53:09;;;;;;;;;;;;;;;-148.88;100.00;75698.00;5018182;28;20032;-88
2022/05/27 00:55:43;;;;;;;18.92;12.88;;;;;;;-148.88;100.00;75693.94;5017194;28;19909;-86
2022/05/27 00:58:16;;;;;;;16.23;12.80;;;;;;;-148.88;100.00;75695.97;5018403;28;20025;-84
2022/05/27 01:00:44;;;;;;;18.80;11.52;;;;;;;-148.88;100.00;75710.19;5017544;28;20433;-87
2022/05/27 01:03:13;;;;;;;18.27;12.15;;;;;;;-148.88;100.00;75704.09;5017456;28;20372;-85
2022/05/27 01:05:46;;;;;;;18.40;12.23;;;;;;;-148.88;100.00;75700.03;5035650;28;20021;-84
2022/05/27 01:08:17;;;;;;;18.25;11.57;;;;;;;-148.88;100.00;75700.03;5016733;28;20053;-83
2022/05/27 01:11:10;;;;;;;21.20;12.35;;;;;;;-148.88;100.00;75708.16;5017029;28;20021;-86
2022/05/27 01:14:14;;;;;;;16.65;11.68;;;;;;;-148.88;100.00;75695.97;5035322;28;20029;-87
2022/05/27 01:17:04;;;;;;;16.17;11.73;;;;;;;-148.88;100.00;75704.09;5017734;28;20044;-85
2022/05/27 01:20:19;;;;;;;16.88;11.90;;;;;;;-148.88;100.00;75708.16;5016690;28;20021;-87
2022/05/27 01:23:03;;;;;;;;;;;;;;;-148.88;100.00;75700.03;5017149;28;20033;-86
2022/05/27 01:25:45;;;;;;;16.98;11.60;;;;;;;-148.88;100.00;75704.09;5034567;28;19909;-88
2022/05/27 01:28:48;;;;;;;17.25;11.43;;;;;;;-148.88;100.00;75716.28;5017415;28;20038;-87
2022/05/27 01:31:57;;;;;;;18.77;12.02;;;;;;;-148.88;100.00;75720.34;5034223;28;20063;-87
2022/05/27 01:34:52;;;;;;;16.67;11.65;;;;;;;-148.88;100.00;75710.19;5034012;28;20445;-87
2022/05/27 01:37:29;;;;;;;16.90;10.75;;;;;;;-148.88;100.00;75710.19;5016162;28;20017;-88
2022/05/27 01:40:00;;;;;;;17.95;11.32;;;;;;;-148.88;100.00;75724.41;5034478;28;20076;-86
2022/05/27 01:43:11;;;;;;;16.45;11.27;;;;;;;-148.88;100.00;75710.19;5016869;28;20364;-88
2022/05/27 01:45:44;;;;;;;14.25;11.60;;;;;;;-148.88;100.00;75712.22;5030747;28;20040;-85
2022/05/27 01:48:24;;;;;;;16.75;12.20;;;;;;;-148.88;100.00;75716.28;5034211;28;20056;-88
2022/05/27 01:51:13;;;;;;;16.80;12.57;;;;;;;-148.88;100.00;75712.22;5016011;28;20036;-88
2022/05/27 01:53:51;;;;;;;18.98;12.82;;;;;;;-148.88;100.00;75718.31;5015883;28;20057;-87
2022/05/27 01:56:29;;;;;;;19.73;13.57;;;;;;;-148.88;100.00;75730.50;5016322;28;20029;-90
2022/05/27 01:59:11;;;;;;;17.85;13.38;;;;;;;-148.88;100.00;75730.50;5033915;28;20104;-88
2022/05/27 02:01:45;;;;;;;19.25;13.35;;;;;;;-148.88;100.00;75732.53;5016741;28;20064;-87
2022/05/27 02:04:19;;;;;;;17.38;13.05;;;;;;;-148.88;100.00;75736.59;5016556;28;20475;-86
2022/05/27 02:06:50;;;;;;;17.23;12.50;;;;;;;-148.88;100.00;75752.84;5016600;28;20025;-86
2022/05/27 02:09:33;;;;;;;18.65;13.02;;;;;;;-148.88;100.00;75785.34;5033226;28;20471;-86
2022/05/27 02:12:04;;;;;;;15.45;11.30;;;;;;;-148.88;100.00;75793.47;5015740;28;20026;-85
2022/05/27 02:14:36;;;;;;;10.73;7.22;;;;;;;-148.88;100.00;75832.06;5033542;28;20106;-85
2022/05/27 02:17:11;;;;;;;10.32;7.63;;;;;;;-148.88;100.00;75832.06;5015641;28;20026;-85
2022/05/27 02:19:48;;;;;;;10.18;6.93;;;;;;;-148.88;100.00;75850.34;5036791;28;20028;-86
2022/05/27 02:22:27;;;;;;;10.13;6.53;;;;;;;-148.88;100.00;75858.47;5020107;28;20026;-85
2022/05/27 02:25:01;;;;;;;7.22;4.57;;;;;;;-148.88;100.00;75876.75;5019563;28;20218;-86
2022/05/27 02:27:43;;;;;;;6.00;4.10;;;;;;;-148.88;100.00;75878.78;5037476;28;20060;-84
2022/05/27 02:30:12;;;;;;;4.97;3.60;;;;;;;-148.88;100.00;75884.88;5020402;28;20018;-84
2022/05/27 02:32:48;;;;;;;6.30;3.65;;;;;;;-148.88;100.00;75882.84;5037095;28;20112;-84
2022/05/27 02:35:27;;;;;;;6.80;4.00;;;;;;;-148.88;100.00;75878.78;5019693;28;20104;-83
2022/05/27 02:37:59;;;;;;;6.90;4.07;;;;;;;-148.88;100.00;75882.84;5019510;28;20025;-83
2022/05/27 02:40:48;;;;;;;6.50;3.28;;;;;;;-148.88;100.00;75878.78;5019918;28;20029;-85
2022/05/27 02:43:33;;;;;;;6.72;4.10;;;;;;;-148.88;100.00;75880.81;5019805;28;20029;-84
2022/05/27 02:46:12;;;;;;;6.15;4.10;;;;;;;-148.88;100.00;75874.72;5025175;28;20044;-84
2022/05/27 02:49:06;;;;;;;5.03;3.25;;;;;;;-148.88;100.00;75886.91;5019958;28;20112;-84
2022/05/27 02:52:13;;;;;;;5.20;3.15;;;;;;;-148.88;100.00;75890.97;5037457;28;20383;-85
2022/05/27 02:54:48;;;;;;;5.40;3.17;;;;;;;-148.88;100.00;75886.91;4959370;28;20058;-86
2022/05/27 02:57:19;;;;;;;6.75;3.10;;;;;;;-148.88;100.00;75899.09;5013113;28;20551;-85
2022/05/27 02:59:52;;;;;;;4.00;3.13;;;;;;;-148.88;100.00;75905.19;5036661;28;20024;-85
2022/05/27 03:02:20;;;;;;;5.60;3.28;;;;;;;-148.88;100.00;75915.34;5019881;28;20034;-85
2022/05/27 03:05:00;;;;;;;6.82;3.38;;;;;;;-148.88;100.00;75915.34;5019637;28;20036;-84
2022/05/27 03:08:02;;;;;;;4.65;3.30;;;;;;;-148.88;100.00;75915.34;5019046;28;20379;-86
2022/05/27 03:10:41;;;;;;;6.00;3.20;;;;;;;-148.88;100.00;75911.28;5018709;28;20112;-86
2022/05/27 03:13:49;;;;;;;6.53;3.50;;;;;;;-148.88;100.00;75915.34;5036418;28;20048;-87
2022/05/27 03:16:28;;;;;;;6.60;3.90;;;;;;;-148.88;100.00;75915.34;5019595;28;20104;-87
2022/05/27 03:19:15;;;;;;;6.60;3.90;;;;;;;-148.88;100.00;75915.34;5019557;28;20021;-88
2022/05/27 03:22:18;;;;;;;8.48;3.75;;;;;;;-148.88;100.00;75917.38;5037001;28;20029;-85
2022/05/27 03:25:17;;;;;;;4.97;3.30;;;;;;;-148.88;100.00;75921.44;5036666;28;20064;-89
2022/05/27 03:28:02;;;;;;;7.97;4.07;;;;;;;-148.88;100.00;75919.41;5019500;28;20025;-88
2022/05/27 03:30:41;;;;;;;6.65;3.83;;;;;;;-148.88;100.00;75919.41;5018572;28;20018;-86
2022/05/27 03:33:42;;;;;;;8.10;3.47;;;;;;;-148.88;100.00;75915.34;5017628;28;20034;-88
2022/05/27 03:36:40;;;;;;;7.32;4.38;;;;;;;-148.88;100.00;75919.41;5036495;28;20029;-86
2022/05/27 03:39:21;;;;;;;5.28;3.72;;;;;;;-148.88;100.00;75901.13;5017682;28;20033;-85
2022/05/27 03:42:03;;;;;;;9.07;4.30;;;;;;;-148.88;100.00;75915.34;5018922;28;20561;-85
2022/05/27 03:44:29;;;;;;;9.18;4.20;;;;;;;-148.88;100.00;75911.28;5018608;28;20037;-87
2022/05/27 03:47:02;;;;;;;7.45;4.65;;;;;;;-148.88;100.00;75907.22;5035978;28;20443;-87
2022/05/27 03:49:31;;;;;;;7.97;4.68;;;;;;;-148.88;100.00;75907.22;5019129;28;20025;-86
2022/05/27 03:52:12;;;;;;;8.13;4.72;;;;;;;-148.88;100.00;75911.28;5032743;28;20029;-87
2022/05/27 03:54:37;;;;;;;10.32;5.55;;;;;;;-148.88;100.00;75915.34;5017628;28;20032;-88
2022/05/27 03:57:08;;;;;;;7.93;5.30;;;;;;;-148.88;100.00;75907.22;5018648;28;20031;-86
2022/05/27 03:59:36;;;;;;;9.50;6.10;;;;;;;-148.88;100.00;75915.34;5035823;28;20108;-87
2022/05/27 04:02:02;;;;;;;10.82;5.72;;;;;;;-148.88;100.00;75909.25;5036052;28;20057;-87
2022/05/27 04:04:29;;;;;;;10.70;6.43;;;;;;;-148.88;100.00;75911.28;5017495;28;20065;-87
2022/05/27 04:06:55;;;;;;;9.77;5.70;;;;;;;-148.88;100.00;75905.19;5018012;28;20022;-85
2022/05/27 04:09:22;;;;;;;11.65;6.65;;;;;;;-148.88;100.00;75907.22;5017960;28;20477;-86
2022/05/27 04:11:51;;;;;;;13.45;6.70;;;;;;;-148.88;100.00;75915.34;5034129;28;20128;-87
2022/05/27 04:14:19;;;;;;;11.05;6.35;;;;;;;-148.88;100.00;75905.19;5035617;28;20025;-85
2022/05/27 04:17:27;;;;;;;10.95;7.00;;;;;;;-148.88;100.00;75915.34;5035164;28;20026;-87
2022/05/27 04:19:48;;;;;;;;;;;;;;;-148.88;100.00;75911.28;5035825;28;20024;-88
2022/05/27 04:22:23;;;;;;;;;;;;;;;-148.88;100.00;75903.16;5018918;28;19913;-86
2022/05/27 04:24:59;;;;;;;10.68;7.40;;;;;;;-148.88;100.00;75911.28;5017349;28;19931;-86
2022/05/27 04:27:28;;;;;;;12.57;7.60;;;;;;;-148.88;100.00;75915.34;5018230;28;20067;-86
2022/05/27 04:30:05;;;;;;;14.88;8.07;;;;;;;-148.88;100.00;75919.41;5034988;28;20490;-87
2022/05/27 04:32:31;;;;;;;13.68;8.10;;;;;;;-148.88;100.00;75907.22;5018348;28;20074;-86
2022/05/27 04:35:01;;;;;;;12.57;7.88;;;;;;;-148.88;100.00;75903.16;5017196;28;20033;-86
2022/05/27 04:37:35;;;;;;;10.95;7.53;;;;;;;-148.88;100.00;75907.22;5016722;28;20160;-84
2022/05/27 04:40:07;;;;;;;12.88;7.65;;;;;;;-148.88;100.00;75903.16;5018464;28;20014;-86
2022/05/27 04:42:34;;;;;;;14.90;7.47;;;;;;;-148.88;100.00;75903.16;5034302;28;20041;-87
2022/05/27 04:44:59;;;;;;;10.48;7.50;;;;;;;-148.88;100.00;75901.13;5018080;28;20021;-85
2022/05/27 04:47:25;;;;;;;13.45;7.40;;;;;;;-148.88;100.00;75901.13;5018097;28;20032;-87
2022/05/27 04:49:56;;;;;;;14.05;7.90;;;;;;;-148.88;100.00;75903.16;5017736;28;20021;-85
2022/05/27 04:52:25;;;;;;;14.15;7.53;;;;;;;-148.88;100.00;75893.00;5018603;28;20421;-86
2022/05/27 04:54:54;;;;;;;14.70;7.63;;;;;;;-148.88;100.00;75903.16;5018297;28;20028;-86
2022/05/27 04:57:34;;;;;;;12.35;7.50;;;;;;;-148.88;100.00;75911.28;5017613;28;20017;-85
2022/05/27 05:00:06;;;;;;;13.32;7.15;;;;;;;-148.88;100.00;75903.16;5035114;28;20462;-85
2022/05/27 05:02:31;;;;;;;11.45;6.90;;;;;;;-148.88;100.00;75911.28;5018136;28;20493;-86
2022/05/27 05:05:09;;;;;;;14.32;6.90;;;;;;;-148.88;100.00;75911.28;5017828;28;20021;-85
2022/05/27 05:07:47;;;;;;;;;;;;;;;;;;;;;
2022/05/27 05:10:20;;;;;;;13.02;7.63;;;;;;;-148.88;100.00;75907.22;5036678;28;20437;-88
2022/05/27 05:12:51;;;;;;;13.35;7.30;;;;;;;-148.88;100.00;75899.09;5036888;28;20031;-87
2022/05/27 05:15:24;;;;;;;13.40;7.50;;;;;;;-148.88;100.00;75903.16;5018110;28;20021;-86
2022/05/27 05:17:49;;;;;;;13.55;7.40;;;;;;;-148.88;100.00;75895.03;5007822;28;20029;-86
2022/05/27 05:20:28;;;;;;;14.10;7.05;;;;;;;-148.88;100.00;75890.97;5018265;28;20071;-85
2022/05/27 05:22:53;;;;;;;14.63;7.10;;;;;;;-148.88;100.00;75893.00;5017134;28;20037;-85
2022/05/27 05:25:21;;;;;;;10.02;6.28;;;;;;;-148.88;100.00;75884.88;5017067;28;20029;-88
2022/05/27 05:28:15;;;;;;;12.30;6.60;;;;;;;-148.88;100.00;75882.84;5018011;28;20027;-85
2022/05/27 05:30:47;;;;;;;10.00;7.22;;;;;;;-148.88;100.00;75870.66;5034979;28;20029;-84
2022/05/27 05:33:38;;;;;;;12.30;6.60;;;;;;;-148.88;100.00;75866.59;5017362;28;20151;-85
2022/05/27 05:36:54;;;;;;;11.45;6.82;;;;;;;-148.88;100.00;75868.63;5034389;28;20522;-88
2022/05/27 05:40:34;;;;;;;14.50;6.40;;;;;;;-148.88;100.00;75870.66;5018782;28;20079;-87
2022/05/27 05:43:21;;;;;;;10.80;6.32;;;;;;;-148.88;100.00;75866.59;4937198;29;20043;-89
2022/05/27 05:46:53;;;;;;;;;;;;;;;;;;;;;
2022/05/27 05:56:11;;;;;;;14.40;6.80;;;;;;;-148.88;100.00;75834.09;5041990;22;20071;-77
2022/05/27 05:58:36;;;;;;;10.93;6.28;;;;;;;-148.88;100.00;75834.09;5033639;28;20666;-76
2022/05/27 06:01:02;;;;;;;7.97;5.95;;;;;;;-148.88;100.00;75842.22;5033451;28;20018;-77
2022/05/27 06:03:27;;;;;;;12.60;6.07;;;;;;;-148.88;100.00;75834.09;5033434;28;20112;-77
2022/05/27 06:05:53;;;;;;;10.10;5.82;;;;;;;-148.88;100.00;75830.03;5033646;28;20064;-77
2022/05/27 06:08:18;;;;;;;14.50;6.05;;;;;;;-148.88;100.00;75813.78;5015626;28;20075;-77
2022/05/27 06:10:45;;;;;;;10.98;5.00;;;;;;;-148.88;100.00;75809.72;5015648;28;20387;-77
2022/05/27 06:13:11;;;;;;;10.88;5.65;;;;;;;-148.88;100.00;75805.66;5015561;28;20022;-77
2022/05/27 06:15:37;;;;;;;8.10;5.10;;;;;;;-148.88;100.00;75813.78;5015411;28;20021;-77
2022/05/27 06:18:04;;;;;;;13.10;5.13;;;;;;;-148.88;100.00;75801.59;5015381;28;20032;-77
2022/05/27 06:20:29;;;;;;;9.50;4.22;;;;;;;-148.88;98.29;75834.09;5033382;28;20022;-77
2022/05/27 06:22:54;;;;;;;9.02;4.22;;;;;;;-148.88;97.78;75830.03;5033051;28;20041;-77
2022/05/27 06:25:20;;;;;;;9.02;3.70;;;;;;;-148.88;95.60;75844.25;5033173;28;20037;-77
2022/05/27 06:27:46;;;;;;;10.02;3.90;;;;;;;-148.88;95.50;75819.88;5032882;28;20445;-77
2022/05/27 06:35:41;;;;;;;9.75;3.40;;;;;;;-148.88;89.53;75787.38;5033430;28;20036;-76
2022/05/27 06:38:07;;;;;;;7.93;3.00;;;;;;;-148.88;85.49;75787.38;5032698;28;20021;-77
2022/05/27 06:40:33;;;;;;;6.38;3.38;;;;;;;-148.88;88.53;75785.34;5032655;28;20029;-77
2022/05/27 06:42:58;;;;;;;10.43;3.60;;;;;;;-148.88;90.89;75765.03;5014986;28;20025;-77
2022/05/27 06:45:24;;;;;;;11.45;3.78;;;;;;;-148.88;91.31;75760.97;5015215;28;20037;-77
2022/05/27 06:47:50;;;;;;;9.93;4.22;;;;;;;-148.88;92.63;75760.97;5014924;28;20033;-77
2022/05/27 06:50:15;;;;;;;9.45;3.67;;;;;;;-148.88;91.61;75783.31;5015033;28;20014;-77
2022/05/27 06:52:41;;;;;;;8.70;3.95;;;;;;;-148.88;90.85;75797.53;5032596;28;20026;-77
2022/05/27 06:55:09;;;;;;;8.82;3.47;;;;;;;-148.88;91.08;75817.84;5032454;28;20383;-77
2022/05/27 06:57:35;;;;;;;10.02;3.15;;;;;;;-148.88;86.94;75821.91;5015349;28;20045;-77
2022/05/27 07:00:01;;;;;;;7.38;2.90;;;;;;;-148.88;86.35;75809.72;5014749;28;20115;-77
2022/05/27 07:02:26;;;;;;;6.18;2.80;;;;;;;-148.88;83.82;75799.56;5032510;28;20025;-77
2022/05/27 07:04:51;;;;;;;8.20;3.50;;;;;;;-148.88;83.61;75781.28;5034389;28;20025;-77
2022/05/27 07:07:17;;;;;;;7.25;2.85;;;;;;;-148.88;84.95;75752.84;5018378;28;20029;-77
2022/05/27 07:09:43;;;;;;;11.68;3.35;;;;;;;-148.88;82.99;75744.72;5036076;28;20025;-77
2022/05/27 07:12:11;;;;;;;8.65;3.13;;;;;;;-148.88;83.49;75734.56;5036259;28;20021;-77
2022/05/27 07:14:38;;;;;;;8.52;3.00;;;;;;;-148.88;83.74;75714.25;5036002;28;20021;-77
2022/05/27 07:17:04;;;;;;;8.15;3.20;;;;;;;-148.88;81.42;75702.06;5035890;28;20116;-77
2022/05/27 07:19:30;;;;;;;11.27;2.90;;;;;;;-148.88;78.19;75726.44;5036089;28;20100;-77
2022/05/27 07:21:56;;;;;;;9.57;2.58;;;;;;;-148.88;77.80;75750.81;5035828;28;20039;-77
2022/05/27 07:24:22;;;;;;;8.65;2.78;;;;;;;-148.88;77.71;75754.88;5035816;28;20025;-77
2022/05/27 07:26:48;;;;;;;11.10;3.20;;;;;;;-148.88;82.64;75722.38;5035969;28;20036;-77
2022/05/27 07:29:14;;;;;;;8.57;3.25;;;;;;;-148.88;81.57;75716.28;5035728;28;20021;-77
2022/05/27 07:31:42;;;;;;;7.18;2.92;;;;;;;-148.88;79.99;75710.19;5018012;28;20394;-77
2022/05/27 07:34:08;;;;;;;10.07;2.72;;;;;;;-148.88;78.17;75724.41;5035647;28;20486;-77
2022/05/27 07:36:33;;;;;;;8.40;2.38;;;;;;;-148.88;75.66;75695.97;5017707;28;20032;-76
2022/05/27 07:38:59;;;;;;;8.77;2.63;;;;;;;-148.88;75.79;75671.59;5018230;28;20025;-77
2022/05/27 07:41:27;;;;;;;9.25;2.65;;;;;;;-148.88;74.81;75651.28;5035461;28;20063;-77
2022/05/27 07:43:53;;;;;;;8.63;2.45;;;;;;;-148.88;75.33;75633.00;5035645;28;20026;-77
2022/05/27 07:46:19;;;;;;;6.75;2.75;;;;;;;-148.88;71.23;75633.00;5017635;28;20079;-77
2022/05/27 07:48:45;;;;;;;10.00;2.33;;;;;;;-148.88;73.24;75606.59;5035567;28;20022;-77
2022/05/27 07:51:11;;;;;;;6.45;2.75;;;;;;;-148.88;69.53;75635.03;5018244;28;20462;-77
2022/05/27 07:53:38;;;;;;;10.27;2.70;;;;;;;-148.88;71.29;75647.22;5017515;28;20022;-77
2022/05/27 07:56:05;;;;;;;8.30;2.80;;;;;;;-148.88;72.40;75643.16;5035104;28;20052;-77
2022/05/27 07:58:30;;;;;;;8.98;2.38;;;;;;;-148.88;70.81;75643.16;5035004;28;20041;-77
2022/05/27 08:00:55;;;;;;;9.25;2.47;;;;;;;-148.88;72.23;75643.16;5017359;28;20017;-77
2022/05/27 08:03:21;;;;;;;8.40;2.20;;;;;;;-148.88;72.85;75671.59;5035022;28;20029;-77
2022/05/27 08:05:47;;;;;;;10.20;2.13;;;;;;;-148.88;69.31;75671.59;5017209;28;20474;-77
2022/05/27 08:08:13;;;;;;;6.95;2.58;;;;;;;-148.88;71.78;75655.34;5035068;28;20028;-77
2022/05/27 08:10:40;;;;;;;9.02;2.40;;;;;;;-148.88;68.03;75639.09;5035252;28;20382;-77
2022/05/27 08:13:06;;;;;;;8.38;2.33;;;;;;;-148.88;69.76;75590.34;5034874;28;20100;-76
2022/05/27 08:15:31;;;;;;;11.90;2.58;;;;;;;-148.88;70.55;75582.22;5016268;28;20117;-76
2022/05/27 08:17:57;;;;;;;9.40;2.58;;;;;;;-148.88;69.91;75553.81;5034701;28;20032;-77
2022/05/27 08:20:26;;;;;;;10.55;2.25;;;;;;;-148.88;66.24;75566.00;5034680;28;20021;-76
2022/05/27 08:22:53;;;;;;;8.02;2.20;;;;;;;-148.88;65.50;75584.25;5034881;28;20036;-77
2022/05/27 08:25:20;;;;;;;7.63;2.33;;;;;;;-148.88;66.55;75594.44;5034606;28;20509;-76
2022/05/27 08:27:45;;;;;;;5.18;2.00;;;;;;;-148.88;67.05;75598.47;5034530;28;20402;-76
2022/05/27 08:30:14;;;;;;;6.13;1.80;;;;;;;-148.88;64.14;75610.66;5034543;28;20470;-77
2022/05/27 08:32:39;;;;;;;11.43;2.33;;;;;;;-148.88;63.59;75620.81;5034446;28;20076;-76
2022/05/27 08:38:01;;;;;;;6.18;1.83;;;;;;;-148.88;60.96;75633.00;5034748;28;20092;-76
2022/05/27 08:40:46;;;;;;;7.72;1.80;;;;;;;-148.88;60.71;75651.28;5016602;28;20021;-76
2022/05/27 08:43:18;;;;;;;11.35;2.40;;;;;;;-148.88;61.08;75614.72;5034555;28;20403;-76
2022/05/27 08:46:22;;;;;;;5.40;1.83;;;;;;;-148.88;61.44;75610.66;5016585;28;20044;-76
2022/05/27 08:48:51;;;;;;;6.68;1.83;;;;;;;-148.88;57.21;75566.00;5013535;28;20040;-76
2022/05/27 08:51:21;;;;;;;7.95;2.10;;;;;;;-148.88;58.12;75537.56;5034102;28;20160;-76
2022/05/27 08:53:54;;;;;;;7.75;2.05;;;;;;;-148.88;55.61;75594.44;5034138;28;20033;-76
2022/05/27 08:59:28;;;;;;;7.63;1.75;;;;;;;-148.88;55.78;75496.94;5034385;28;20613;-76
2022/05/27 09:02:14;;;;;;;5.30;1.80;;;;;;;-148.88;55.44;75509.13;5034006;28;20049;-76
2022/05/27 09:04:53;;;;;;;11.88;2.03;;;;;;;-148.88;55.64;75496.94;5016200;28;20442;-76
2022/05/27 09:07:30;;;;;;;5.97;2.00;;;;;;;-148.88;54.73;75444.13;5033779;28;20558;-76
2022/05/27 09:09:56;;;;;;;8.68;1.70;;;;;;;-148.88;52.97;75478.66;5034115;28;20025;-76
2022/05/27 09:12:30;;;;;;;4.85;1.65;;;;;;;-148.88;54.35;75545.69;5016075;28;20116;-76
2022/05/27 09:15:19;;;;;;;8.63;1.85;;;;;;;-148.88;55.17;75578.19;5016066;28;20056;-76
2022/05/27 09:18:26;;;;;;;8.70;2.05;;;;;;;-148.88;54.43;75527.41;5015907;28;20028;-76
2022/05/27 09:21:22;;;;;;;6.88;1.90;;;;;;;-148.88;52.65;75492.88;5033585;28;20037;-76
2022/05/27 09:24:00;;;;;;;6.45;1.77;;;;;;;-148.88;51.37;75450.22;5015890;28;20132;-76
2022/05/27 09:26:31;;;;;;;8.05;1.83;;;;;;;-148.88;52.58;75452.25;5033807;28;20064;-76
2022/05/27 09:29:16;;;;;;;5.28;1.88;;;;;;;-148.88;50.83;75456.31;5033427;28;20026;-76
2022/05/27 09:31:47;;;;;;;6.55;2.05;;;;;;;-148.88;52.40;75484.75;5015810;28;20024;-76
2022/05/27 09:34:13;;;;;;;8.85;2.00;;;;;;;-148.88;52.30;75436.00;5033589;28;20021;-76
2022/05/27 09:36:44;;;;;;;7.47;2.28;;;;;;;-148.88;51.94;75427.88;5015667;28;20151;-76
2022/05/27 09:39:12;;;;;;;8.27;1.98;;;;;;;-148.88;51.23;75385.22;5015731;28;20029;-76
2022/05/27 09:42:16;;;;;;;9.93;1.90;;;;;;;-148.88;49.37;75381.16;5033224;28;20433;-76
2022/05/27 09:44:48;;;;;;;;;;;;;;;-148.88;48.27;75391.31;5015911;28;20030;-76
2022/05/27 09:47:16;;;;;;;9.15;2.00;;;;;;;-148.88;48.22;75385.22;5033363;28;19913;-76
2022/05/27 09:49:43;;;;;;;4.70;1.92;;;;;;;-148.88;48.91;75354.75;5033211;28;20068;-76
2022/05/27 09:52:08;;;;;;;4.95;1.65;;;;;;;-148.88;46.04;75358.81;5015446;28;20029;-76
2022/05/27 09:54:45;;;;;;;4.22;1.65;;;;;;;-148.88;45.90;75334.44;5033003;28;20032;-76
2022/05/27 09:57:10;;;;;;;8.55;1.98;;;;;;;-148.88;45.36;75326.31;5015403;28;20433;-76
2022/05/27 09:59:39;;;;;;;7.67;1.83;;;;;;;-148.88;47.52;75297.88;5015349;28;20029;-76
2022/05/27 10:02:21;;;;;;;5.28;1.77;;;;;;;-148.88;44.91;75277.59;5015587;28;20661;-76
2022/05/27 10:05:15;;;;;;;3.67;1.95;;;;;;;-148.88;45.86;75253.22;5033092;28;20025;-76
2022/05/27 10:07:50;;;;;;;6.97;1.63;;;;;;;-148.88;46.65;75318.19;5032998;28;20524;-76
2022/05/27 10:10:22;;;;;;;4.75;1.70;;;;;;;-148.88;48.83;75391.31;5033359;28;20021;-76
2022/05/27 10:12:48;;;;;;;8.68;2.00;;;;;;;-148.88;50.33;75423.81;5032994;28;20025;-76
2022/05/27 10:15:40;;;;;;;5.82;1.90;;;;;;;-148.88;47.73;75375.06;5033002;28;20057;-76
2022/05/27 10:18:12;;;;;;;6.90;1.90;;;;;;;-148.88;48.35;75328.34;5029929;28;20041;-76
2022/05/27 10:20:38;;;;;;;5.45;2.20;;;;;;;-148.88;46.96;75373.03;5032857;28;20026;-76
2022/05/27 10:23:07;;;;;;;8.02;2.15;;;;;;;-148.88;47.37;75332.41;5015193;28;20087;-76
2022/05/27 10:25:34;;;;;;;5.63;1.88;;;;;;;-148.88;45.84;75269.47;5015136;28;20025;-76
2022/05/27 10:28:00;;;;;;;7.78;2.05;;;;;;;-148.88;44.31;75261.34;5015024;28;20037;-76
2022/05/27 10:30:29;;;;;;;6.28;1.58;;;;;;;-148.88;45.33;75204.47;5033081;28;20426;-76
2022/05/27 10:33:11;;;;;;;11.15;2.35;;;;;;;-148.88;44.29;75299.91;5032785;28;20549;-76
2022/05/27 10:35:36;;;;;;;7.78;2.22;;;;;;;-148.88;42.94;75297.88;5032928;28;20036;-76
2022/05/27 10:38:42;;;;;;;5.93;1.90;;;;;;;-148.88;44.46;75407.56;5032759;28;20021;-76
2022/05/27 10:41:30;;;;;;;9.13;2.95;;;;;;;-148.88;45.19;75421.78;5036809;28;20021;-76
2022/05/27 10:44:25;;;;;;;5.57;1.83;;;;;;;-148.88;44.87;75375.06;5036884;28;20053;-76
2022/05/27 10:46:56;;;;;;;8.07;1.95;;;;;;;-148.88;44.24;75326.31;5036756;28;20057;-76
2022/05/27 10:49:47;;;;;;;10.63;2.10;;;;;;;-148.88;44.29;75330.38;5036839;28;20501;-76
2022/05/27 10:52:21;;;;;;;5.22;1.60;;;;;;;-148.88;44.93;75281.66;5037019;28;20430;-77
2022/05/27 10:55:03;;;;;;;8.55;2.20;;;;;;;-148.88;43.49;75308.03;5018530;28;20105;-77
2022/05/27 11:03:44;;;;;;;9.05;1.77;;;;;;;-148.88;43.72;75383.19;5037010;28;20049;-76
2022/05/27 11:06:31;;;;;;;8.70;1.88;;;;;;;-148.88;43.37;75395.38;5036517;28;20032;-76
2022/05/27 11:09:19;;;;;;;6.57;2.00;;;;;;;-148.88;43.57;75340.53;5031365;28;20414;-76
2022/05/27 11:12:04;;;;;;;8.55;2.03;;;;;;;-148.88;44.01;75332.41;5035912;28;20060;-76
2022/05/27 11:17:41;;;;;;;8.40;1.98;;;;;;;-148.88;43.49;75261.34;5016400;28;20080;-77
2022/05/27 11:20:43;;;;;;;7.90;2.08;;;;;;;-148.88;41.64;75318.19;5016493;28;20383;-78
2022/05/27 11:23:52;;;;;;;10.13;2.08;;;;;;;-148.88;41.43;75310.06;5017523;28;20034;-79
2022/05/27 11:26:17;;;;;;;8.50;2.03;;;;;;;-148.88;40.65;75314.13;5013608;28;20025;-79
2022/05/27 11:29:04;;;;;;;8.13;1.90;;;;;;;-148.88;43.27;75320.22;5036528;28;20029;-77
2022/05/27 11:31:44;;;;;;;7.90;1.73;;;;;;;-148.88;45.82;75423.81;5036814;28;20255;-77
2022/05/27 11:34:22;;;;;;;5.22;2.08;;;;;;;-148.88;40.18;75395.38;5035772;28;20026;-77
2022/05/27 11:37:29;;;;;;;10.13;1.70;;;;;;;-148.88;40.09;75342.56;5035924;28;20036;-77
2022/05/27 11:40:15;;;;;;;6.53;1.73;;;;;;;-148.88;41.05;75330.38;5035941;28;20040;-77
2022/05/27 11:43:07;;;;;;;9.68;1.67;;;;;;;-148.88;40.90;75371.00;5035619;28;20113;-77
2022/05/27 11:45:35;;;;;;;7.10;2.00;;;;;;;-148.88;40.31;75322.25;5017722;28;20172;-77
2022/05/27 11:48:04;;;;;;;9.00;1.80;;;;;;;-148.88;41.28;75332.41;5035410;28;20032;-77
2022/05/27 11:50:38;;;;;;;10.48;1.80;;;;;;;-148.88;40.51;75269.47;5034229;28;20025;-76
2022/05/27 11:53:34;;;;;;;5.88;1.52;;;;;;;-148.88;40.88;75216.66;5035632;28;20021;-77
2022/05/27 11:56:13;;;;;;;5.72;1.42;;;;;;;-148.88;39.44;75257.28;5017347;28;20036;-77
2022/05/27 11:58:48;;;;;;;6.63;1.92;;;;;;;-148.88;39.98;75220.72;5035194;28;20067;-77
2022/05/27 12:01:36;;;;;;;8.20;1.90;;;;;;;-148.88;40.28;75247.13;5017494;28;20017;-77
2022/05/27 12:04:40;;;;;;;6.53;2.00;;;;;;;-148.88;42.58;75342.56;5018179;28;20034;-76
2022/05/27 12:07:33;;;;;;;5.13;1.75;;;;;;;-148.88;41.90;75362.88;5024086;28;20041;-75
2022/05/27 12:10:13;;;;;;;5.47;1.85;;;;;;;-148.88;42.88;75444.13;5035146;28;20029;-75
2022/05/27 12:12:57;;;;;;;9.15;1.73;;;;;;;-148.88;41.28;75440.06;5035204;28;20022;-75
2022/05/27 12:15:28;;;;;;;9.05;2.22;;;;;;;-148.88;40.77;75366.94;5034933;28;20072;-75
2022/05/27 12:17:56;;;;;;;6.63;1.50;;;;;;;-148.88;40.23;75348.66;5034822;28;20108;-76